Time;durP1;ratioP1;P1;durP2;ratioP2;P2;SDS_P1;SDS_P2;PMS_P1;PMS_P2;Temp;Humidity;BMP_temperature;BMP_pressure;BME280_temperature;BME280_humidity;BME280_pressure;Samples;Min_cycle;Max_cycle;Signal;HPM_P1;HPM_P2
2021/08/22 00:00:43;;;;;;;4.50;3.40;;;;;;;16.93;68.80;99724.98;115791;1205;22359;-55
2021/08/22 00:03:12;;;;;;;4.20;3.60;;;;;;;16.91;68.88;99723.23;115627;1198;137152;-56
2021/08/22 00:05:42;;;;;;;5.90;3.00;;;;;;;16.89;69.08;99724.54;115797;1205;22846;-56
2021/08/22 00:08:11;;;;;;;4.20;3.70;;;;;;;16.85;69.26;99722.40;115573;1198;137479;-56
2021/08/22 00:10:39;;;;;;;4.50;3.20;;;;;;;16.81;69.31;99724.20;115779;1205;22188;-56
2021/08/22 00:13:07;;;;;;;7.60;3.20;;;;;;;16.79;69.44;99723.63;115657;1198;137454;-56
2021/08/22 00:15:35;;;;;;;4.20;3.50;;;;;;;16.76;69.59;99728.11;115710;1210;22262;-55
2021/08/22 00:18:03;;;;;;;4.80;3.70;;;;;;;16.72;69.75;99725.03;115757;1205;22447;-56
2021/08/22 00:20:31;;;;;;;5.50;3.00;;;;;;;16.69;69.83;99731.40;115676;1198;137263;-56
2021/08/22 00:22:59;;;;;;;4.50;3.50;;;;;;;16.66;70.11;99735.00;115772;1205;22231;-56
2021/08/22 00:25:29;;;;;;;6.20;3.40;;;;;;;16.64;70.18;99734.03;115632;1198;137452;-57
2021/08/22 00:27:57;;;;;;;7.10;3.00;;;;;;;16.60;70.27;99737.17;115757;1209;22292;-56
2021/08/22 00:30:25;;;;;;;5.60;3.40;;;;;;;16.57;70.52;99734.31;115760;1204;22318;-56
2021/08/22 00:32:53;;;;;;;5.30;3.50;;;;;;;16.54;70.58;99733.79;115588;1198;137345;-56
2021/08/22 00:35:22;;;;;;;4.20;3.10;;;;;;;16.50;70.73;99732.40;115734;1204;22524;-57
2021/08/22 00:37:51;;;;;;;4.00;3.00;;;;;;;16.47;70.86;99734.52;115665;1198;140800;-56
2021/08/22 00:40:19;;;;;;;7.20;3.30;;;;;;;16.44;70.80;99734.95;115754;1206;22421;-57
2021/08/22 00:42:48;;;;;;;5.20;3.20;;;;;;;16.42;70.84;99733.92;115757;1202;22296;-58
2021/08/22 00:45:17;;;;;;;6.10;3.50;;;;;;;16.41;70.91;99733.49;115673;1198;137163;-56
2021/08/22 00:47:46;;;;;;;9.20;3.30;;;;;;;16.41;70.89;99735.48;115834;1202;22956;-56
2021/08/22 00:50:15;;;;;;;5.30;3.60;;;;;;;16.39;71.00;99736.27;115678;1198;137708;-57
2021/08/22 00:52:45;;;;;;;4.50;3.30;;;;;;;16.38;70.99;99736.55;115829;1209;22262;-56
2021/08/22 00:55:13;;;;;;;3.70;3.00;;;;;;;16.35;71.14;99737.73;115737;1201;137655;-56
2021/08/22 00:57:41;;;;;;;4.70;3.00;;;;;;;16.29;71.16;99738.73;115765;1202;23524;-55
2021/08/22 01:00:11;;;;;;;10.60;3.70;;;;;;;16.28;71.27;99742.70;115739;1204;22374;-55
2021/08/22 01:02:51;;;;;;;4.80;3.40;;;;;;;16.24;71.33;99746.70;115749;1201;137396;-55
2021/08/22 01:05:48;;;;;;;5.40;3.20;;;;;;;16.19;71.51;99745.80;115806;1203;23158;-55
2021/08/22 01:08:29;;;;;;;3.60;3.20;;;;;;;16.14;71.66;99750.42;115669;1198;137076;-55
2021/08/22 01:11:00;;;;;;;3.90;3.20;;;;;;;16.10;71.73;99756.11;115625;1205;22383;-56
2021/08/22 01:13:34;;;;;;;4.20;3.30;;;;;;;16.05;71.89;99758.19;115637;1198;137513;-55
2021/08/22 01:16:02;;;;;;;3.60;3.30;;;;;;;16.00;71.85;99759.52;115675;1204;22331;-56
2021/08/22 01:18:34;;;;;;;9.00;3.40;;;;;;;15.96;72.06;99760.74;115707;1206;23307;-56
2021/08/22 01:21:11;;;;;;;4.20;3.40;;;;;;;15.94;72.12;99762.97;115595;1201;137715;-56
2021/08/22 01:23:43;;;;;;;4.00;3.00;;;;;;;15.91;72.19;99760.84;115657;1205;23390;-56
2021/08/22 01:26:11;;;;;;;4.10;3.10;;;;;;;15.91;72.23;99767.05;115600;1199;138211;-56
2021/08/22 01:28:40;;;;;;;4.20;3.20;;;;;;;15.90;72.24;99768.59;115529;1205;22409;-56
2021/08/22 01:31:10;;;;;;;4.70;2.90;;;;;;;15.90;72.29;99768.31;115590;1205;139300;-56
2021/08/22 01:33:38;;;;;;;4.30;3.10;;;;;;;15.89;72.30;99769.42;115532;1208;22330;-56
2021/08/22 01:36:06;;;;;;;4.10;3.20;;;;;;;15.87;72.26;99771.64;112241;1209;22511;-55
2021/08/22 01:38:34;;;;;;;4.40;3.20;;;;;;;15.84;72.22;99771.02;115347;1201;138120;-56
2021/08/22 01:41:02;;;;;;;6.40;3.50;;;;;;;15.82;72.28;99779.55;115686;1205;23062;-56
2021/08/22 01:43:32;;;;;;;4.80;3.20;;;;;;;15.80;72.37;99772.35;115543;1200;138280;-56
2021/08/22 01:46:01;;;;;;;4.00;3.20;;;;;;;15.79;72.29;99770.55;115592;1205;22351;-56
2021/08/22 01:48:29;;;;;;;7.10;3.30;;;;;;;15.78;72.39;99771.98;115563;1204;23073;-56
2021/08/22 01:50:57;;;;;;;5.70;3.20;;;;;;;15.77;72.27;99770.61;115656;1198;137539;-56
2021/08/22 01:53:26;;;;;;;6.10;3.40;;;;;;;15.76;72.27;99769.30;115675;1205;22169;-56
2021/08/22 01:55:55;;;;;;;4.40;3.20;;;;;;;15.76;72.31;99768.64;115477;1201;138460;-56
2021/08/22 01:58:24;;;;;;;7.00;3.40;;;;;;;15.73;72.20;99766.03;115760;1204;22378;-56
2021/08/22 02:00:53;;;;;;;4.90;3.50;;;;;;;15.73;72.33;99767.35;115584;1198;137658;-59
2021/08/22 02:03:41;;;;;;;3.60;2.70;;;;;;;15.74;72.30;99770.90;115774;1209;22296;-56
2021/08/22 02:06:36;;;;;;;4.30;3.40;;;;;;;15.74;72.25;99766.73;115722;1205;22192;-56
2021/08/22 02:09:08;;;;;;;5.70;3.20;;;;;;;15.74;72.17;99766.95;115557;1201;137619;-56
2021/08/22 02:12:09;;;;;;;6.00;3.30;;;;;;;15.71;72.12;99765.34;115772;1205;22312;-56
2021/08/22 02:14:39;;;;;;;8.80;3.30;;;;;;;15.70;72.14;99773.98;115586;1198;137733;-56
2021/08/22 02:17:07;;;;;;;4.10;2.90;;;;;;;15.68;72.13;99773.88;115706;1210;22297;-56
2021/08/22 02:19:37;;;;;;;4.90;3.30;;;;;;;15.68;72.17;99774.48;115609;1210;137786;-56
2021/08/22 02:22:05;;;;;;;8.50;4.00;;;;;;;15.68;72.15;99774.65;115554;1205;22328;-56
2021/08/22 02:24:33;;;;;;;4.80;3.40;;;;;;;15.68;72.08;99775.74;115723;1205;22396;-56
2021/08/22 02:27:02;;;;;;;3.00;2.70;;;;;;;15.67;72.10;99778.55;115546;1201;137810;-56
2021/08/22 02:29:30;;;;;;;4.10;2.80;;;;;;;15.64;71.99;99779.94;115748;1205;22308;-56
2021/08/22 02:31:58;;;;;;;3.70;3.00;;;;;;;15.62;72.13;99782.16;115651;1199;138086;-56
2021/08/22 02:34:26;;;;;;;3.90;3.10;;;;;;;15.59;72.10;99782.38;115734;1202;22353;-56
2021/08/22 02:36:54;;;;;;;6.50;2.80;;;;;;;15.57;72.19;99785.39;115652;1199;137729;-56
2021/08/22 02:39:22;;;;;;;4.50;3.10;;;;;;;15.56;72.31;99783.30;115704;1205;22303;-56
2021/08/22 02:41:50;;;;;;;3.80;3.30;;;;;;;15.57;72.21;99784.78;115774;1201;22403;-56
2021/08/22 02:44:19;;;;;;;5.60;2.90;;;;;;;15.57;72.18;99785.33;115672;1198;137831;-56
2021/08/22 02:46:47;;;;;;;3.70;3.00;;;;;;;15.55;72.05;99781.42;115792;1202;22285;-56
2021/08/22 02:49:15;;;;;;;9.50;3.70;;;;;;;15.52;71.95;99783.67;115655;1202;137642;-55
2021/08/22 02:51:43;;;;;;;4.10;3.10;;;;;;;15.49;72.06;99783.85;115765;1203;22390;-59
2021/08/22 02:54:11;;;;;;;4.30;3.10;;;;;;;15.47;72.04;99783.04;115781;1206;22778;-56
2021/08/22 02:56:39;;;;;;;3.60;3.10;;;;;;;15.46;72.16;99784.30;115673;1199;137977;-56
2021/08/22 02:59:07;;;;;;;4.60;3.00;;;;;;;15.45;72.02;99788.59;115792;1202;23440;-56
2021/08/22 03:01:38;;;;;;;3.30;2.50;;;;;;;15.43;72.12;99791.25;115584;1201;137841;-56
2021/08/22 03:04:06;;;;;;;3.80;3.40;;;;;;;15.39;72.05;99790.79;115741;1205;23108;-56
2021/08/22 03:06:34;;;;;;;5.40;3.40;;;;;;;15.34;72.12;99796.84;115729;1201;22394;-56
2021/08/22 03:09:03;;;;;;;7.50;3.50;;;;;;;15.28;72.30;99800.13;115715;1198;137619;-56
2021/08/22 03:11:32;;;;;;;4.40;3.50;;;;;;;15.23;72.61;99806.77;115764;1201;22082;-56
2021/08/22 03:14:01;;;;;;;4.80;3.70;;;;;;;15.17;72.58;99806.08;115662;1196;137645;-56
2021/08/22 03:16:29;;;;;;;5.50;3.60;;;;;;;15.10;72.83;99807.50;115667;1210;22301;-56
2021/08/22 03:19:17;;;;;;;6.80;3.80;;;;;;;15.01;73.08;99807.30;115714;1203;137693;-56
2021/08/22 03:21:45;;;;;;;4.30;3.60;;;;;;;14.92;73.39;99813.05;115773;1208;23087;-56
2021/08/22 03:24:14;;;;;;;4.00;3.40;;;;;;;14.86;73.75;99811.64;115673;1203;22316;-56
2021/08/22 03:26:43;;;;;;;7.20;3.80;;;;;;;14.82;73.88;99812.05;115578;1199;138548;-56
2021/08/22 03:29:10;;;;;;;7.40;3.70;;;;;;;14.79;74.02;99817.20;115733;1209;22318;-56
2021/08/22 03:31:39;;;;;;;5.40;4.10;;;;;;;14.76;74.12;99820.60;115682;1198;138136;-56
2021/08/22 03:34:07;;;;;;;7.60;4.50;;;;;;;14.72;74.50;99818.14;115786;1202;22340;-56
2021/08/22 03:36:37;;;;;;;12.40;4.00;;;;;;;14.72;74.87;99815.90;115741;1202;22327;-56
2021/08/22 03:39:06;;;;;;;7.90;4.40;;;;;;;14.74;74.94;99824.61;115664;1198;137885;-57
2021/08/22 03:41:35;;;;;;;7.70;4.60;;;;;;;14.75;75.07;99821.54;111603;1202;25104;-56
2021/08/22 03:44:04;;;;;;;10.20;6.10;;;;;;;14.78;75.25;99821.59;111512;1198;137447;-56
2021/08/22 03:46:32;;;;;;;8.20;5.80;;;;;;;14.82;75.69;99822.59;111637;1199;24267;-55
2021/08/22 03:49:01;;;;;;;9.20;5.90;;;;;;;14.89;75.63;99824.85;115680;1198;139439;-56
2021/08/22 03:51:30;;;;;;;12.10;6.30;;;;;;;14.95;75.61;99821.98;115801;1203;23167;-56
2021/08/22 03:53:58;;;;;;;10.20;6.30;;;;;;;15.03;75.50;99822.66;115751;1209;22346;-56
2021/08/22 03:56:26;;;;;;;13.10;6.00;;;;;;;15.10;75.62;99826.21;115645;1198;137917;-56
2021/08/22 03:58:54;;;;;;;9.20;6.20;;;;;;;15.15;75.56;99823.67;115806;1209;23216;-56
2021/08/22 04:01:23;;;;;;;19.00;6.60;;;;;;;15.24;75.37;99826.44;115686;1198;137842;-56
2021/08/22 04:03:53;;;;;;;11.60;6.20;;;;;;;15.31;75.15;99823.38;115627;1204;22378;-56
2021/08/22 04:06:37;;;;;;;11.20;6.20;;;;;;;15.40;74.94;99824.71;115628;1202;22346;-56
2021/08/22 04:09:07;;;;;;;7.90;6.00;;;;;;;15.47;74.57;99825.59;115674;1201;138433;-56
2021/08/22 04:11:35;;;;;;;9.10;5.80;;;;;;;15.54;74.29;99826.42;115838;1201;22085;-57
2021/08/22 04:14:03;;;;;;;7.50;5.80;;;;;;;15.61;74.09;99826.98;115648;1198;137973;-56
2021/08/22 04:16:31;;;;;;;6.90;5.90;;;;;;;15.68;73.86;99828.43;115782;1201;22362;-56
2021/08/22 04:18:59;;;;;;;11.60;6.00;;;;;;;15.75;73.64;99832.39;115730;1198;138221;-56
2021/08/22 04:21:27;;;;;;;16.30;6.10;;;;;;;15.81;73.54;99831.86;115711;1202;23046;-56
2021/08/22 04:23:55;;;;;;;15.30;5.50;;;;;;;15.91;73.16;99833.83;115735;1202;23337;-56
2021/08/22 04:26:23;;;;;;;9.80;5.50;;;;;;;16.00;72.81;99833.98;115710;1199;138401;-56
2021/08/22 04:28:51;;;;;;;11.10;5.40;;;;;;;16.10;72.65;99833.52;115777;1202;22342;-56
2021/08/22 04:31:20;;;;;;;13.60;4.90;;;;;;;16.23;72.39;99836.83;115641;1198;138359;-56
2021/08/22 04:33:48;;;;;;;8.40;4.70;;;;;;;16.37;72.11;99833.30;115784;1203;23082;-56
2021/08/22 04:36:16;;;;;;;7.10;5.30;;;;;;;16.55;71.62;99837.98;115730;1203;22359;-56
2021/08/22 04:38:45;;;;;;;6.60;5.20;;;;;;;16.71;70.93;99833.89;115629;1198;138905;-56
2021/08/22 04:41:19;;;;;;;6.40;4.60;;;;;;;16.83;70.41;99838.66;112147;1202;24858;-56
2021/08/22 04:43:52;;;;;;;10.50;5.10;;;;;;;16.93;69.86;99839.87;115643;1199;138614;-56
2021/08/22 04:46:20;;;;;;;8.70;4.50;;;;;;;17.01;69.42;99842.60;115758;1202;22267;-56
2021/08/22 04:48:49;;;;;;;7.90;4.60;;;;;;;17.09;68.98;99845.20;115838;1203;22762;-56
2021/08/22 04:51:17;;;;;;;10.90;5.40;;;;;;;17.17;68.84;99847.52;115657;1198;137907;-56
2021/08/22 04:53:45;;;;;;;10.20;4.90;;;;;;;17.27;68.37;99849.77;115683;1206;22232;-56
2021/08/22 04:56:14;;;;;;;9.10;4.90;;;;;;;17.46;68.35;99853.23;115693;1202;137848;-56
2021/08/22 04:58:42;;;;;;;7.70;4.20;;;;;;;17.71;67.76;99852.36;115637;1205;22344;-56
2021/08/22 05:01:10;;;;;;;11.10;4.50;;;;;;;17.98;66.98;99851.48;115686;1198;137957;-55
2021/08/22 05:03:41;;;;;;;8.40;4.50;;;;;;;18.27;66.21;99852.47;115803;1208;22295;-60
2021/08/22 05:06:10;;;;;;;11.60;6.00;;;;;;;18.55;65.48;99852.49;115737;1203;22824;-56
2021/08/22 05:08:38;;;;;;;15.30;5.90;;;;;;;18.82;65.36;99848.98;115706;1198;138359;-55
2021/08/22 05:11:06;;;;;;;9.70;5.20;;;;;;;19.11;64.81;99850.09;115772;1202;22292;-56
2021/08/22 05:13:37;;;;;;;12.50;5.10;;;;;;;19.38;63.87;99850.97;115650;1199;137784;-55
2021/08/22 05:16:05;;;;;;;9.90;5.50;;;;;;;19.67;63.06;99852.45;115773;1202;22375;-55
2021/08/22 05:18:40;;;;;;;8.00;5.40;;;;;;;19.99;62.37;99855.96;115776;1208;22380;-55
2021/08/22 05:21:08;;;;;;;12.30;5.90;;;;;;;20.32;61.43;99849.70;115648;1198;138839;-55
2021/08/22 05:23:36;;;;;;;6.60;5.60;;;;;;;20.62;60.39;99849.30;115808;1208;22346;-56
2021/08/22 05:26:04;;;;;;;11.40;6.30;;;;;;;20.86;59.75;99850.80;115640;1198;137814;-56
2021/08/22 05:28:32;;;;;;;8.90;5.40;;;;;;;21.07;59.15;99847.09;115739;1202;22347;-56
2021/08/22 05:31:00;;;;;;;13.70;5.80;;;;;;;21.34;58.61;99849.08;115602;1199;137392;-56
2021/08/22 05:33:28;;;;;;;11.00;6.20;;;;;;;21.60;57.39;99844.73;115760;1201;22349;-56
2021/08/22 05:36:15;;;;;;;;;;;;;;;21.82;56.66;99846.08;115707;1205;22333;-56
2021/08/22 05:38:43;;;;;;;9.00;5.20;;;;;;;21.93;56.02;99848.66;115675;1199;123605;-56
2021/08/22 05:41:11;;;;;;;8.10;4.30;;;;;;;22.02;55.56;99851.73;115798;1202;22323;-56
2021/08/22 05:43:39;;;;;;;7.60;4.70;;;;;;;22.13;54.87;99849.32;115676;1202;137371;-56
2021/08/22 05:46:09;;;;;;;6.30;4.40;;;;;;;22.19;54.03;99851.09;115756;1201;22318;-56
2021/08/22 05:48:38;;;;;;;8.60;4.40;;;;;;;22.13;53.45;99852.39;115737;1205;22940;-56
2021/08/22 05:51:24;;;;;;;10.10;5.30;;;;;;;21.94;54.12;99850.60;115493;1201;137013;-56
2021/08/22 05:53:53;;;;;;;9.50;5.00;;;;;;;21.76;54.43;99853.02;115773;1202;22424;-56
2021/08/22 05:56:21;;;;;;;9.70;3.60;;;;;;;21.61;53.86;99850.95;115673;1198;137496;-56
2021/08/22 05:58:50;;;;;;;3.90;2.80;;;;;;;21.41;53.12;99855.13;115690;1203;22230;-56
2021/08/22 06:01:18;;;;;;;6.00;3.30;;;;;;;21.19;53.22;99858.57;115628;1199;137194;-56
2021/08/22 06:03:47;;;;;;;5.70;2.90;;;;;;;21.06;53.40;99855.10;115734;1201;23283;-56
2021/08/22 06:06:16;;;;;;;4.80;2.90;;;;;;;20.95;53.41;99857.10;115715;1202;22337;-56
2021/08/22 06:08:44;;;;;;;3.90;2.70;;;;;;;20.83;53.77;99860.92;115699;1199;138208;-55
2021/08/22 06:11:12;;;;;;;8.00;2.90;;;;;;;20.71;53.91;99860.92;115720;1201;22215;-56
2021/08/22 06:13:40;;;;;;;3.40;2.40;;;;;;;20.58;53.71;99864.63;115667;1198;137647;-56
2021/08/22 06:16:09;;;;;;;4.20;2.90;;;;;;;20.51;54.33;99861.98;115749;1202;22299;-56
2021/08/22 06:18:37;;;;;;;3.80;2.60;;;;;;;20.48;54.06;99860.05;115706;1208;22863;-56
2021/08/22 06:21:05;;;;;;;5.40;2.60;;;;;;;20.42;53.57;99860.55;115622;1199;137136;-56
2021/08/22 06:23:33;;;;;;;4.70;2.30;;;;;;;20.36;53.90;99859.38;115672;1202;23404;-56
2021/08/22 06:26:04;;;;;;;5.00;2.70;;;;;;;20.32;53.83;99862.23;115146;1197;136947;-58
2021/08/22 06:28:32;;;;;;;5.20;2.40;;;;;;;20.28;54.12;99862.52;115110;1202;22413;-56
2021/08/22 06:31:01;;;;;;;6.70;2.60;;;;;;;20.27;54.02;99861.02;115430;1205;22235;-56
2021/08/22 06:33:29;;;;;;;6.20;3.10;;;;;;;20.25;53.75;99858.61;115349;1201;137624;-56
2021/08/22 06:36:00;;;;;;;5.00;2.30;;;;;;;20.26;54.11;99865.13;115559;1204;22343;-56
2021/08/22 06:38:29;;;;;;;4.60;2.50;;;;;;;20.26;54.06;99868.65;115390;1200;137214;-56
2021/08/22 06:40:57;;;;;;;3.90;2.50;;;;;;;20.30;53.92;99865.92;115465;1205;22292;-57
2021/08/22 06:43:25;;;;;;;5.60;3.20;;;;;;;20.34;54.31;99865.60;115417;1201;137179;-57
2021/08/22 06:45:53;;;;;;;3.70;2.70;;;;;;;20.39;54.14;99865.33;115506;1204;22356;-57
2021/08/22 06:48:23;;;;;;;6.40;2.50;;;;;;;20.41;53.76;99864.23;115482;1205;22289;-58
2021/08/22 06:50:57;;;;;;;10.60;2.50;;;;;;;20.43;53.71;99872.54;115367;1201;137354;-58
2021/08/22 06:53:25;;;;;;;3.40;2.20;;;;;;;20.45;53.79;99870.34;115474;1205;23219;-58
2021/08/22 06:55:53;;;;;;;6.00;2.60;;;;;;;20.48;53.67;99871.11;115314;1202;137181;-58
2021/08/22 06:58:23;;;;;;;7.50;2.70;;;;;;;20.51;53.66;99868.08;115446;1204;22293;-57
2021/08/22 07:00:51;;;;;;;5.80;2.70;;;;;;;20.55;53.04;99867.59;115593;1205;22306;-57
2021/08/22 07:03:19;;;;;;;3.90;2.30;;;;;;;20.55;52.86;99864.65;115375;1201;137065;-57
2021/08/22 07:05:47;;;;;;;4.30;2.10;;;;;;;20.55;52.54;99869.80;115460;1204;23066;-57
2021/08/22 07:08:16;;;;;;;3.00;1.90;;;;;;;20.51;52.23;99868.64;115431;1201;137033;-57
2021/08/22 07:10:45;;;;;;;3.30;1.90;;;;;;;20.49;52.12;99871.63;115399;1204;22327;-57
2021/08/22 07:13:13;;;;;;;9.20;2.10;;;;;;;20.47;52.35;99871.84;115298;1201;137191;-58
2021/08/22 07:15:41;;;;;;;2.80;1.90;;;;;;;20.47;52.52;99872.95;115501;1204;22984;-58
2021/08/22 07:18:09;;;;;;;3.90;2.00;;;;;;;20.49;52.15;99876.21;115367;1204;22255;-57
2021/08/22 07:20:37;;;;;;;3.40;2.10;;;;;;;20.52;51.74;99878.28;115378;1201;137492;-57
2021/08/22 07:23:05;;;;;;;2.80;1.80;;;;;;;20.53;51.49;99877.80;115525;1204;22293;-57
2021/08/22 07:25:34;;;;;;;2.60;1.70;;;;;;;20.56;51.19;99879.98;115356;1201;137237;-57
2021/08/22 07:28:02;;;;;;;2.50;1.70;;;;;;;20.55;51.02;99875.22;115476;1204;22316;-57
2021/08/22 07:30:30;;;;;;;4.20;1.70;;;;;;;20.56;51.09;99876.76;115509;1205;22951;-57
2021/08/22 07:33:01;;;;;;;4.40;1.90;;;;;;;20.57;50.92;99877.55;115357;1206;136834;-57
2021/08/22 07:35:29;;;;;;;2.50;1.60;;;;;;;20.59;50.80;99878.80;115531;1205;22783;-57
2021/08/22 07:37:57;;;;;;;6.30;1.80;;;;;;;20.60;50.24;99876.77;115416;1200;137109;-57
2021/08/22 07:40:25;;;;;;;2.20;1.60;;;;;;;20.62;50.21;99876.77;115466;1205;23095;-57
2021/08/22 07:42:53;;;;;;;12.30;2.50;;;;;;;20.63;49.86;99879.63;115442;1207;22364;-57
2021/08/22 07:45:22;;;;;;;6.30;1.90;;;;;;;20.63;50.28;99879.50;115374;1202;137056;-58
2021/08/22 07:47:50;;;;;;;2.30;1.80;;;;;;;20.66;50.51;99880.46;115431;1205;23592;-57
2021/08/22 07:50:18;;;;;;;3.70;1.80;;;;;;;20.71;50.33;99884.11;115412;1201;137518;-57
2021/08/22 07:52:46;;;;;;;3.30;2.20;;;;;;;20.74;50.33;99888.21;115500;1205;22299;-57
2021/08/22 07:55:15;;;;;;;3.70;1.80;;;;;;;20.76;50.58;99885.75;115400;1201;138191;-57
2021/08/22 07:57:43;;;;;;;3.60;1.90;;;;;;;20.81;50.57;99884.67;115437;1208;22389;-57
2021/08/22 08:00:11;;;;;;;2.60;2.10;;;;;;;20.86;50.22;99882.58;115462;1204;22341;-57
2021/08/22 08:02:40;;;;;;;3.10;2.00;;;;;;;20.88;49.84;99881.91;115307;1201;136973;-57
2021/08/22 08:05:08;;;;;;;4.50;2.40;;;;;;;20.89;50.24;99879.90;115530;1204;22323;-57
2021/08/22 08:07:37;;;;;;;7.60;2.60;;;;;;;20.93;50.96;99874.70;115307;1201;137117;-57
2021/08/22 08:10:08;;;;;;;2.90;2.10;;;;;;;21.00;50.12;99879.81;115426;1204;22986;-57
2021/08/22 08:12:36;;;;;;;5.30;2.40;;;;;;;21.03;49.89;99870.88;115488;1204;22338;-57
2021/08/22 08:15:05;;;;;;;5.10;2.40;;;;;;;21.03;49.88;99872.80;115392;1201;137473;-57
2021/08/22 08:17:34;;;;;;;4.60;1.70;;;;;;;21.05;49.69;99871.31;115470;1205;22243;-57
2021/08/22 08:20:02;;;;;;;4.50;2.00;;;;;;;21.07;49.54;99874.39;115367;1201;137014;-57
2021/08/22 08:22:31;;;;;;;6.00;1.60;;;;;;;21.10;49.29;99873.27;115496;1205;22350;-57
2021/08/22 08:24:59;;;;;;;3.10;1.80;;;;;;;21.13;49.56;99870.41;115469;1205;22366;-60
2021/08/22 08:27:27;;;;;;;2.10;1.30;;;;;;;21.16;49.57;99869.98;115320;1201;137362;-57
2021/08/22 08:29:56;;;;;;;6.00;1.30;;;;;;;21.21;49.39;99866.95;115464;1205;22304;-57
2021/08/22 08:32:24;;;;;;;2.20;1.40;;;;;;;21.28;48.86;99866.38;115346;1201;137048;-57
2021/08/22 08:34:52;;;;;;;3.50;1.80;;;;;;;21.34;48.55;99867.86;115518;1204;22322;-57
2021/08/22 08:37:20;;;;;;;5.40;1.80;;;;;;;21.39;48.38;99870.75;115392;1201;141160;-57
2021/08/22 08:39:50;;;;;;;3.80;1.40;;;;;;;21.44;48.43;99867.86;114221;1205;22466;-57
2021/08/22 08:42:23;;;;;;;2.10;1.30;;;;;;;21.49;48.70;99869.19;111274;1204;24040;-57
2021/08/22 08:44:52;;;;;;;4.10;1.70;;;;;;;21.56;48.56;99865.21;111343;1201;137038;-56
2021/08/22 08:47:21;;;;;;;1.80;1.30;;;;;;;21.63;48.09;99866.35;111479;1212;22622;-56
2021/08/22 08:49:55;;;;;;;5.40;1.50;;;;;;;21.66;47.56;99870.13;115339;1201;138973;-56
2021/08/22 08:52:30;;;;;;;2.80;1.70;;;;;;;21.65;47.73;99870.61;115431;1204;22154;-57
2021/08/22 08:55:01;;;;;;;3.50;1.90;;;;;;;21.59;47.32;99871.23;115433;1205;22359;-56
2021/08/22 08:57:31;;;;;;;2.20;1.50;;;;;;;21.50;47.40;99869.88;115446;1201;136950;-56
2021/08/22 08:59:59;;;;;;;3.00;1.60;;;;;;;21.46;47.64;99866.11;115435;1205;22332;-56
2021/08/22 09:02:27;;;;;;;2.00;1.40;;;;;;;21.49;47.21;99867.52;115334;1201;137192;-57
2021/08/22 09:05:15;;;;;;;4.30;1.80;;;;;;;21.57;47.95;99869.23;115485;1206;22277;-56
2021/08/22 09:08:27;;;;;;;3.10;1.90;;;;;;;21.70;48.65;99866.12;115377;1201;136976;-56
2021/08/22 09:11:34;;;;;;;3.90;1.90;;;;;;;21.85;48.70;99866.55;115499;1205;22230;-56
2021/08/22 09:14:45;;;;;;;3.90;1.60;;;;;;;21.97;48.29;99864.80;115375;1201;137148;-57
2021/08/22 09:17:19;;;;;;;4.40;1.50;;;;;;;22.07;48.04;99867.84;115487;1206;22323;-57
2021/08/22 09:19:55;;;;;;;4.10;1.80;;;;;;;22.13;47.48;99871.59;115383;1202;137118;-57
2021/08/22 09:22:42;;;;;;;7.20;1.70;;;;;;;22.16;47.10;99872.05;115507;1210;22351;-57
2021/08/22 09:25:29;;;;;;;2.50;1.50;;;;;;;22.16;46.49;99870.62;115339;1201;138664;-57
2021/08/22 09:28:00;;;;;;;3.20;2.00;;;;;;;22.13;46.24;99865.02;115472;1200;22731;-57
2021/08/22 09:30:31;;;;;;;3.50;1.60;;;;;;;22.10;46.13;99858.14;115433;1212;22323;-56
2021/08/22 09:33:36;;;;;;;1.50;1.40;;;;;;;22.03;46.18;99855.33;115363;1201;136954;-57
2021/08/22 09:36:23;;;;;;;2.90;1.50;;;;;;;21.97;47.11;99858.42;115482;1212;23057;-57
2021/08/22 09:39:28;;;;;;;2.50;1.80;;;;;;;21.98;47.07;99861.56;115406;1201;137396;-57
2021/08/22 09:42:34;;;;;;;3.70;1.50;;;;;;;22.02;46.71;99863.90;111530;1204;22427;-56
2021/08/22 09:45:24;;;;;;;2.30;1.40;;;;;;;22.08;46.03;99858.50;111395;1201;138039;-56
2021/08/22 09:48:01;;;;;;;1.90;1.50;;;;;;;22.12;46.33;99857.84;111617;1210;23503;-56
2021/08/22 09:50:55;;;;;;;4.90;1.70;;;;;;;22.18;46.69;99857.23;111482;1201;137042;-55
2021/08/22 09:53:54;;;;;;;3.70;1.60;;;;;;;22.23;46.34;99861.81;111540;1204;22455;-56
2021/08/22 09:57:05;;;;;;;2.70;1.50;;;;;;;22.26;46.51;99860.36;111368;1201;137006;-56
2021/08/22 09:59:56;;;;;;;3.60;1.40;;;;;;;22.22;45.74;99863.23;111457;1204;25157;-56
2021/08/22 10:02:43;;;;;;;2.00;1.30;;;;;;;22.19;46.11;99860.92;111334;1201;136902;-57
2021/08/22 10:05:40;;;;;;;2.90;1.30;;;;;;;22.18;44.99;99862.39;111557;1205;23771;-56
2021/08/22 10:08:16;;;;;;;1.50;1.30;;;;;;;22.16;45.07;99860.11;111440;1202;136901;-56
2021/08/22 10:11:03;;;;;;;1.70;1.40;;;;;;;22.15;45.46;99855.52;111538;1204;22532;-56
2021/08/22 10:13:31;;;;;;;2.80;1.20;;;;;;;22.18;45.19;99850.84;111461;1201;137200;-56
2021/08/22 10:15:59;;;;;;;2.90;1.40;;;;;;;22.22;46.28;99853.04;111493;1206;22469;-57
2021/08/22 10:18:27;;;;;;;3.30;1.40;;;;;;;22.27;45.94;99854.84;111514;1205;22699;-56
2021/08/22 10:21:07;;;;;;;2.60;1.30;;;;;;;22.30;45.12;99858.02;111426;1201;136970;-57
2021/08/22 10:23:38;;;;;;;2.90;1.30;;;;;;;22.32;45.06;99857.72;111438;1204;22870;-56
2021/08/22 10:26:11;;;;;;;2.80;1.50;;;;;;;22.33;45.04;99861.25;111374;1201;138229;-56
2021/08/22 10:28:47;;;;;;;3.70;1.80;;;;;;;22.32;45.18;99860.01;115508;1205;22421;-57
2021/08/22 10:31:58;;;;;;;4.80;2.40;;;;;;;22.32;45.31;99861.45;115421;1201;138221;-57
2021/08/22 10:34:27;;;;;;;7.90;1.70;;;;;;;22.35;44.42;99855.30;115506;1204;22255;-57
2021/08/22 10:36:56;;;;;;;1.60;1.20;;;;;;;22.35;44.12;99857.61;115426;1206;22253;-57
2021/08/22 10:39:27;;;;;;;1.50;1.40;;;;;;;22.33;44.15;99861.80;115459;1205;136581;-57
2021/08/22 10:41:59;;;;;;;3.80;1.80;;;;;;;22.29;44.58;99862.02;115449;1205;22392;-56
2021/08/22 10:44:38;;;;;;;2.20;1.40;;;;;;;22.27;44.80;99867.70;115405;1201;138091;-56
2021/08/22 10:47:10;;;;;;;2.80;1.90;;;;;;;22.27;45.13;99865.88;115570;1205;22307;-56
2021/08/22 10:49:54;;;;;;;2.30;1.60;;;;;;;22.27;44.56;99862.15;115305;1201;137541;-56
2021/08/22 10:52:39;;;;;;;3.20;1.40;;;;;;;22.27;44.32;99864.21;115473;1205;22299;-55
2021/08/22 10:55:12;;;;;;;1.80;1.60;;;;;;;22.26;43.79;99864.02;115273;1202;137185;-55
2021/08/22 11:00:17;;;;;;;2.70;1.70;;;;;;;22.22;43.80;99867.27;110002;1221;545986;-57
2021/08/22 11:02:46;;;;;;;4.40;1.70;;;;;;;22.15;44.07;99867.70;115152;1205;136633;-57
2021/08/22 11:05:15;;;;;;;3.10;2.10;;;;;;;22.14;44.28;99867.38;115334;1214;23046;-57
2021/08/22 11:07:47;;;;;;;2.90;1.80;;;;;;;22.16;44.30;99867.55;115168;1205;138013;-58
2021/08/22 11:10:20;;;;;;;7.60;1.90;;;;;;;22.19;44.37;99871.24;115251;1214;22321;-58
2021/08/22 11:12:51;;;;;;;1.70;1.60;;;;;;;22.21;44.21;99868.17;115303;1217;22392;-55
2021/08/22 11:15:26;;;;;;;4.90;1.60;;;;;;;22.21;44.39;99866.52;115146;1209;136651;-56
2021/08/22 11:17:55;;;;;;;3.30;1.70;;;;;;;22.21;44.88;99864.04;115308;1209;22271;-55
2021/08/22 11:20:27;;;;;;;3.40;1.60;;;;;;;22.22;45.01;99862.52;115213;1204;137702;-56
2021/08/22 11:23:05;;;;;;;5.10;1.90;;;;;;;22.26;44.84;99863.20;115154;1216;22494;-55
2021/08/22 11:25:33;;;;;;;2.20;1.70;;;;;;;22.28;44.57;99862.58;114984;1205;138004;-55
2021/08/22 11:28:06;;;;;;;2.40;1.80;;;;;;;22.29;44.67;99858.83;115199;1211;22365;-55
2021/08/22 11:30:35;;;;;;;4.40;1.70;;;;;;;22.32;44.67;99855.10;115230;1207;23364;-55
2021/08/22 11:33:03;;;;;;;3.90;1.70;;;;;;;22.37;44.07;99852.48;115150;1205;136662;-55
2021/08/22 11:35:34;;;;;;;2.80;1.50;;;;;;;22.45;44.67;99848.55;115294;1211;23197;-55
2021/08/22 11:38:03;;;;;;;4.30;3.00;;;;;;;22.56;44.79;99847.29;115234;1205;137520;-55
2021/08/22 11:40:33;;;;;;;3.50;2.10;;;;;;;22.69;44.95;99848.17;112693;1214;22458;-55
2021/08/22 11:43:03;;;;;;;2.90;1.70;;;;;;;22.82;44.10;99846.77;115261;1216;22363;-55
2021/08/22 11:45:36;;;;;;;2.50;1.60;;;;;;;22.91;42.95;99846.36;115187;1205;136661;-56